CJQ8 weather

Public forecast

Using degrees Celsius for public forecast. Weather courtesy of forecast.io.

Closest aviation weather report (METAR) to Maryfield Aerodrome

Closest report is Brandon Municipal Airport, 60.6 nm (112.2 km) E. Retrieved 2020/08/14 22:00 UTC (38 minutes ago):

CYBR 142200Z 03009KT 15SM FEW038 BKN250 21/11 A2990 RMK CU1CI5 CU TR SLP133 DENSITY ALT 2400FT

Closest aviation forecast (TAF) to Maryfield Aerodrome

Closest forecast is Brandon Municipal Airport, 60.6 nm (112.2 km) E. Retrieved 2020/08/14 18:39 UTC (4 hours ago):

TAF CYBR 141738Z 1418/1506 VRB03KT P6SM SCT020 OVC090 TEMPO 1418/1420 P6SM -SHRA BKN020 OVC090 BECMG 1418/1420 33012KT FM142000 33012KT P6SM FEW090 SCT180 BECMG 1502/1504 27008KT RMK NXT FCST BY 150000Z